createdAt,value
2019-03-20T00:01:04.049Z,14.35
2019-03-20T00:03:31.330Z,11.90
2019-03-20T00:05:58.618Z,11.40
2019-03-20T00:08:25.875Z,13.05
2019-03-20T00:10:53.166Z,10.10
2019-03-20T00:13:20.433Z,13.45
2019-03-20T00:15:47.723Z,13.43
2019-03-20T00:18:15.000Z,13.70
2019-03-20T00:20:42.267Z,20.52
2019-03-20T00:23:09.617Z,16.05
2019-03-20T00:25:36.914Z,13.25
2019-03-20T00:28:04.238Z,12.75
2019-03-20T00:30:31.514Z,16.87
2019-03-20T00:32:58.844Z,15.32
2019-03-20T00:35:26.118Z,24.45
2019-03-20T00:37:54.892Z,16.95
2019-03-20T00:40:22.322Z,19.30
2019-03-20T00:42:49.942Z,14.70
2019-03-20T00:45:20.807Z,15.93
2019-03-20T00:47:48.294Z,15.03
2019-03-20T00:50:16.255Z,17.82
2019-03-20T00:52:43.564Z,16.50
2019-03-20T00:55:11.798Z,15.72
2019-03-20T00:57:39.226Z,17.00
2019-03-20T01:00:08.051Z,13.62
2019-03-20T01:02:35.313Z,15.45
2019-03-20T01:05:12.125Z,16.80
2019-03-20T01:07:31.612Z,18.23
2019-03-20T01:09:58.876Z,19.50
2019-03-20T01:12:26.534Z,20.37
2019-03-20T01:14:53.797Z,18.32
2019-03-20T01:17:21.088Z,18.17
2019-03-20T01:19:48.610Z,16.87
2019-03-20T01:22:15.970Z,17.17
2019-03-20T01:24:43.247Z,19.62
2019-03-20T01:27:10.798Z,17.70
2019-03-20T01:29:38.075Z,18.90
2019-03-20T01:32:05.421Z,19.67
2019-03-20T01:34:32.715Z,18.75
2019-03-20T01:37:00.000Z,12.55
2019-03-20T01:39:27.277Z,13.70
2019-03-20T01:41:54.572Z,12.30
2019-03-20T01:44:21.856Z,13.32
2019-03-20T01:46:49.130Z,15.55
2019-03-20T01:49:16.412Z,18.45
2019-03-20T01:51:43.753Z,18.45
2019-03-20T01:54:11.085Z,16.02
2019-03-20T01:56:42.574Z,21.30
2019-03-20T01:59:09.913Z,18.73
2019-03-20T02:01:37.366Z,17.70
2019-03-20T02:04:04.806Z,17.32
2019-03-20T02:06:32.099Z,17.48
2019-03-20T02:08:59.374Z,17.98
2019-03-20T02:11:26.642Z,19.00
2019-03-20T02:13:53.923Z,20.57
2019-03-20T02:16:21.197Z,16.73
2019-03-20T02:18:48.479Z,20.02
2019-03-20T02:21:15.822Z,16.57
2019-03-20T02:23:43.272Z,26.95
2019-03-20T02:26:10.551Z,16.40
2019-03-20T02:28:37.856Z,18.20
2019-03-20T02:31:05.309Z,18.20
2019-03-20T02:33:32.611Z,14.98
2019-03-20T02:35:59.873Z,17.90
2019-03-20T02:38:27.169Z,14.40
2019-03-20T02:40:54.560Z,21.80
2019-03-20T02:43:21.897Z,19.10
2019-03-20T02:45:49.167Z,19.45
2019-03-20T02:48:16.477Z,24.65
2019-03-20T02:50:43.817Z,15.85
2019-03-20T02:53:11.078Z,15.20
2019-03-20T02:55:38.380Z,15.10
2019-03-20T02:58:05.924Z,18.77
2019-03-20T03:00:33.290Z,16.23
2019-03-20T03:03:00.621Z,16.65
2019-03-20T03:05:27.977Z,19.85
2019-03-20T03:07:55.380Z,17.25
2019-03-20T03:10:22.819Z,17.55
2019-03-20T03:12:50.087Z,15.15
2019-03-20T03:15:17.394Z,22.00
2019-03-20T03:17:45.139Z,14.10
2019-03-20T03:20:13.268Z,18.87
2019-03-20T03:22:40.652Z,18.32
2019-03-20T03:25:08.774Z,13.95
2019-03-20T03:27:36.066Z,17.37
2019-03-20T03:30:05.279Z,19.23
2019-03-20T03:32:32.572Z,16.95
2019-03-20T03:34:59.900Z,16.40
2019-03-20T03:37:27.191Z,13.50
2019-03-20T03:39:54.455Z,17.10
2019-03-20T03:42:21.740Z,16.65
2019-03-20T03:44:49.035Z,18.35
2019-03-20T03:47:16.305Z,17.30
2019-03-20T03:49:43.646Z,16.70
2019-03-20T03:52:10.937Z,14.53
2019-03-20T03:54:38.291Z,16.07
2019-03-20T03:57:05.694Z,19.25
2019-03-20T03:59:32.986Z,16.30
2019-03-20T04:02:00.255Z,16.15
2019-03-20T04:04:27.550Z,15.25
2019-03-20T04:06:54.830Z,18.02
2019-03-20T04:09:22.125Z,16.25
2019-03-20T04:11:49.599Z,15.50
2019-03-20T04:14:16.894Z,15.93
2019-03-20T04:16:44.173Z,17.95
2019-03-20T04:19:11.446Z,20.48
2019-03-20T04:21:38.747Z,17.62
2019-03-20T04:24:06.024Z,17.42
2019-03-20T04:26:33.302Z,21.55
2019-03-20T04:29:00.597Z,26.45
2019-03-20T04:31:27.863Z,20.52
2019-03-20T04:33:57.612Z,19.65
2019-03-20T04:36:24.234Z,17.05
2019-03-20T04:38:51.597Z,15.40
2019-03-20T04:41:18.878Z,21.60
2019-03-20T04:43:46.164Z,17.15
2019-03-20T04:46:13.450Z,15.58
2019-03-20T04:48:40.730Z,14.63
2019-03-20T04:53:47.765Z,20.85
2019-03-20T04:56:15.043Z,16.52
2019-03-20T04:58:42.319Z,14.47
2019-03-20T05:01:09.650Z,15.60
2019-03-20T05:03:36.910Z,16.32
2019-03-20T05:06:04.259Z,14.50
2019-03-20T05:08:31.550Z,19.17
2019-03-20T05:10:58.880Z,17.77
2019-03-20T05:13:26.175Z,20.32
2019-03-20T05:15:53.464Z,18.17
2019-03-20T05:18:20.778Z,22.15
2019-03-20T05:20:48.113Z,18.37
2019-03-20T05:23:15.464Z,19.87
2019-03-20T05:25:42.964Z,19.85
2019-03-20T05:28:10.411Z,23.55
2019-03-20T05:30:37.698Z,23.90
2019-03-20T05:33:04.967Z,23.70
2019-03-20T05:35:32.386Z,21.60
2019-03-20T05:37:59.766Z,24.63
2019-03-20T05:40:27.144Z,25.88
2019-03-20T05:42:54.411Z,21.75
2019-03-20T05:45:21.686Z,20.75
2019-03-20T05:47:49.039Z,27.00
2019-03-20T05:50:16.705Z,29.40
2019-03-20T05:52:44.057Z,20.15
2019-03-20T05:55:11.627Z,23.57
2019-03-20T05:57:38.898Z,25.82
2019-03-20T06:00:14.924Z,21.75
2019-03-20T06:02:42.273Z,27.50
2019-03-20T06:05:09.830Z,20.75
2019-03-20T06:07:37.125Z,22.58
2019-03-20T06:10:05.937Z,25.92
2019-03-20T06:12:33.286Z,21.97
2019-03-20T06:15:00.635Z,23.38
2019-03-20T06:17:27.971Z,30.02
2019-03-20T06:19:55.234Z,31.10
2019-03-20T06:22:26.174Z,25.82
2019-03-20T06:24:53.514Z,30.70
2019-03-20T06:27:20.794Z,36.13
2019-03-20T06:29:48.067Z,35.13
2019-03-20T06:32:15.345Z,31.75
2019-03-20T06:34:42.654Z,31.52
2019-03-20T06:37:11.366Z,27.10
2019-03-20T06:39:38.675Z,33.73
2019-03-20T06:42:05.973Z,31.77
2019-03-20T06:44:33.276Z,34.92
2019-03-20T06:47:00.558Z,37.58
2019-03-20T06:49:27.882Z,33.78
2019-03-20T06:51:55.344Z,42.15
2019-03-20T06:54:22.636Z,43.10
2019-03-20T06:56:49.918Z,40.28
2019-03-20T06:59:30.743Z,42.38
2019-03-20T07:01:58.766Z,34.05
2019-03-20T07:04:33.753Z,36.23
2019-03-20T07:07:08.367Z,40.98
2019-03-20T07:09:40.098Z,43.60
2019-03-20T07:12:07.371Z,41.53
2019-03-20T07:14:34.655Z,38.80
2019-03-20T07:17:01.957Z,37.67
2019-03-20T07:19:29.332Z,51.83
2019-03-20T07:21:56.605Z,44.30
2019-03-20T07:24:23.915Z,47.85
2019-03-20T07:26:51.273Z,60.48
2019-03-20T07:29:18.600Z,56.80
2019-03-20T07:31:45.903Z,43.10
2019-03-20T07:34:13.197Z,45.67
2019-03-20T07:36:40.490Z,57.03
2019-03-20T07:39:08.846Z,45.85
2019-03-20T07:41:36.138Z,43.73
2019-03-20T07:44:03.494Z,37.95
2019-03-20T07:46:30.871Z,40.65
2019-03-20T07:48:58.158Z,38.48
2019-03-20T07:51:25.475Z,40.17
2019-03-20T07:53:52.749Z,56.10
2019-03-20T07:56:20.014Z,53.52
2019-03-20T07:58:47.342Z,44.77
2019-03-20T08:01:14.765Z,62.25
2019-03-20T08:03:42.071Z,50.98
2019-03-20T08:06:09.617Z,46.90
2019-03-20T08:08:36.928Z,63.15
2019-03-20T08:11:04.260Z,56.48
2019-03-20T08:13:31.542Z,42.38
2019-03-20T08:15:58.864Z,52.55
2019-03-20T08:18:26.170Z,46.80
2019-03-20T08:20:53.448Z,57.20
2019-03-20T08:23:21.245Z,52.93
2019-03-20T08:25:48.513Z,47.85
2019-03-20T08:28:15.785Z,47.48
2019-03-20T08:30:43.195Z,46.18
2019-03-20T08:33:10.463Z,64.77
2019-03-20T08:35:37.779Z,57.75
2019-03-20T08:38:05.044Z,51.92
2019-03-20T08:40:32.346Z,57.08
2019-03-20T08:42:59.622Z,47.48
2019-03-20T08:45:26.887Z,44.13
2019-03-20T08:47:54.189Z,36.45
2019-03-20T08:50:22.223Z,62.15
2019-03-20T08:52:49.517Z,39.45
2019-03-20T08:55:17.456Z,59.55
2019-03-20T08:57:44.751Z,55.33
2019-03-20T09:00:13.625Z,43.87
2019-03-20T09:02:40.926Z,43.78
2019-03-20T09:05:09.053Z,58.23
2019-03-20T09:07:46.645Z,48.55
2019-03-20T09:10:06.871Z,40.60
2019-03-20T09:12:34.152Z,37.98
2019-03-20T09:15:01.438Z,42.55
2019-03-20T09:17:28.714Z,47.27
2019-03-20T09:19:56.018Z,55.33
2019-03-20T09:22:23.303Z,66.02
2019-03-20T09:24:50.582Z,44.03
2019-03-20T09:27:17.934Z,48.45
2019-03-20T09:29:45.219Z,51.77
2019-03-20T09:32:12.526Z,44.85
2019-03-20T09:34:39.829Z,42.00
2019-03-20T09:37:07.110Z,50.17
2019-03-20T09:39:34.454Z,47.33
2019-03-20T09:42:01.730Z,43.35
2019-03-20T09:44:29.026Z,48.02
2019-03-20T09:46:56.402Z,42.58
2019-03-20T09:49:23.695Z,46.92
2019-03-20T09:51:50.971Z,44.95
2019-03-20T09:54:18.234Z,46.33
2019-03-20T09:56:45.543Z,47.33
2019-03-20T09:59:12.807Z,50.25
2019-03-20T10:01:40.172Z,48.63
2019-03-20T10:04:07.562Z,44.77
2019-03-20T10:06:34.835Z,37.67
2019-03-20T10:09:02.159Z,39.92
2019-03-20T10:11:29.467Z,52.25
2019-03-20T10:13:56.837Z,39.78
2019-03-20T10:16:24.115Z,44.30
2019-03-20T10:18:51.484Z,36.28
2019-03-20T10:21:18.763Z,47.40
2019-03-20T10:23:46.323Z,44.18
2019-03-20T10:26:13.665Z,40.25
2019-03-20T10:28:40.935Z,42.70
2019-03-20T10:31:08.219Z,49.25
2019-03-20T10:33:35.486Z,32.13
2019-03-20T10:36:02.771Z,44.40
2019-03-20T10:38:30.553Z,44.33
2019-03-20T10:40:57.940Z,50.48
2019-03-20T10:43:25.334Z,55.43
2019-03-20T10:45:52.677Z,34.25
2019-03-20T10:48:19.943Z,39.53
2019-03-20T10:50:47.240Z,35.10
2019-03-20T10:53:14.510Z,38.83
2019-03-20T10:55:41.865Z,37.15
2019-03-20T10:58:09.137Z,46.23
2019-03-20T11:00:36.406Z,38.58
2019-03-20T11:03:03.762Z,54.13
2019-03-20T11:05:31.061Z,43.85
2019-03-20T11:07:58.334Z,35.70
2019-03-20T11:10:25.969Z,38.88
2019-03-20T11:12:53.447Z,36.90
2019-03-20T11:15:21.199Z,46.37
2019-03-20T11:17:48.500Z,32.85
2019-03-20T11:20:16.646Z,35.65
2019-03-20T11:22:44.011Z,43.13
2019-03-20T11:25:12.550Z,46.75
2019-03-20T11:27:39.849Z,34.88
2019-03-20T11:30:08.686Z,39.65
2019-03-20T11:32:36.044Z,44.58
2019-03-20T11:35:03.509Z,36.73
2019-03-20T11:37:30.785Z,33.15
2019-03-20T11:39:58.146Z,34.18
2019-03-20T11:42:25.513Z,38.38
2019-03-20T11:44:52.804Z,42.55
2019-03-20T11:47:20.206Z,38.48
2019-03-20T11:49:47.515Z,36.75
2019-03-20T11:52:14.780Z,38.05
2019-03-20T11:54:42.051Z,42.53
2019-03-20T11:57:09.335Z,34.98
2019-03-20T11:59:36.614Z,45.35
2019-03-20T12:02:04.274Z,32.50
2019-03-20T12:04:31.538Z,42.33
2019-03-20T12:06:58.838Z,36.10
2019-03-20T12:09:26.135Z,41.77
2019-03-20T12:11:53.438Z,41.40
2019-03-20T12:14:20.798Z,36.23
2019-03-20T12:16:48.098Z,41.30
2019-03-20T12:19:15.380Z,35.78
2019-03-20T12:21:42.801Z,37.53
2019-03-20T12:24:10.081Z,31.27
2019-03-20T12:26:37.384Z,40.03
2019-03-20T12:29:04.658Z,38.67
2019-03-20T12:31:32.810Z,40.00
2019-03-20T12:34:02.149Z,31.27
2019-03-20T12:36:29.085Z,42.48
2019-03-20T12:38:56.351Z,31.37
2019-03-20T12:41:23.631Z,38.25
2019-03-20T12:43:50.929Z,52.58
2019-03-20T12:46:18.235Z,30.02
2019-03-20T12:48:45.689Z,32.85
2019-03-20T12:51:13.052Z,31.15
2019-03-20T12:53:40.962Z,36.10
2019-03-20T12:56:08.245Z,35.08
2019-03-20T12:58:35.530Z,42.93
2019-03-20T13:01:02.790Z,36.03
2019-03-20T13:03:30.839Z,39.88
2019-03-20T13:05:58.487Z,39.27
2019-03-20T13:08:25.795Z,31.57
2019-03-20T13:10:53.061Z,36.17
2019-03-20T13:13:20.397Z,39.38
2019-03-20T13:15:47.909Z,39.78
2019-03-20T13:18:15.193Z,38.88
2019-03-20T13:20:42.458Z,37.80
2019-03-20T13:23:11.612Z,38.75
2019-03-20T13:25:38.929Z,42.20
2019-03-20T13:28:06.297Z,41.73
2019-03-20T13:30:50.331Z,33.35
2019-03-20T13:33:25.695Z,34.20
2019-03-20T13:35:46.721Z,33.02
2019-03-20T13:38:14.012Z,34.53
2019-03-20T13:40:41.379Z,25.57
2019-03-20T13:43:08.697Z,27.95
2019-03-20T13:45:35.970Z,41.37
2019-03-20T13:48:03.340Z,39.13
2019-03-20T13:50:30.611Z,28.10
2019-03-20T13:52:57.897Z,32.45
2019-03-20T13:55:25.274Z,26.62
2019-03-20T13:57:52.741Z,23.87
2019-03-20T14:00:21.124Z,22.90
2019-03-20T14:02:48.469Z,25.15
2019-03-20T14:05:15.834Z,25.12
2019-03-20T14:07:43.194Z,29.10
2019-03-20T14:10:12.026Z,31.55
2019-03-20T14:12:39.375Z,29.87
2019-03-20T14:15:08.327Z,27.37
2019-03-20T14:17:35.768Z,24.02
2019-03-20T14:20:03.534Z,27.70
2019-03-20T14:22:30.884Z,31.95
2019-03-20T14:24:58.266Z,32.42
2019-03-20T14:27:25.537Z,27.90
2019-03-20T14:29:52.817Z,30.48
2019-03-20T14:32:20.115Z,22.25
2019-03-20T14:34:47.470Z,35.75
2019-03-20T14:37:14.740Z,28.40
2019-03-20T14:39:42.102Z,31.17
2019-03-20T14:42:09.414Z,28.10
2019-03-20T14:44:36.708Z,37.42
2019-03-20T14:47:04.051Z,27.35
2019-03-20T14:49:31.334Z,30.85
2019-03-20T14:51:58.664Z,26.97
2019-03-20T14:54:25.934Z,24.45
2019-03-20T14:56:53.210Z,23.42
2019-03-20T14:59:20.555Z,27.98
2019-03-20T15:01:47.854Z,28.50
2019-03-20T15:04:15.148Z,27.40
2019-03-20T15:06:42.623Z,30.45
2019-03-20T15:09:09.922Z,29.35
2019-03-20T15:11:37.183Z,31.68
2019-03-20T15:14:04.527Z,31.52
2019-03-20T15:16:31.822Z,31.97
2019-03-20T15:18:59.105Z,28.98
2019-03-20T15:21:26.535Z,28.38
2019-03-20T15:23:54.554Z,25.12
2019-03-20T15:26:21.824Z,18.40
2019-03-20T15:28:49.110Z,17.48
2019-03-20T15:31:16.398Z,20.77
2019-03-20T15:33:43.688Z,27.05
2019-03-20T15:36:10.956Z,22.50
2019-03-20T15:38:38.248Z,26.73
2019-03-20T15:41:05.583Z,25.43
2019-03-20T15:43:32.882Z,25.08
2019-03-20T15:46:00.289Z,24.72
2019-03-20T15:48:27.621Z,23.42
2019-03-20T15:50:54.939Z,17.32
2019-03-20T15:53:22.214Z,20.92
2019-03-20T15:55:49.493Z,24.92
2019-03-20T15:58:16.772Z,14.38
2019-03-20T16:00:44.115Z,21.33
2019-03-20T16:03:12.778Z,13.55
2019-03-20T16:05:40.044Z,21.45
2019-03-20T16:08:07.310Z,19.48
2019-03-20T16:10:34.695Z,21.57
2019-03-20T16:13:02.092Z,25.80
2019-03-20T16:15:29.490Z,18.17
2019-03-20T16:17:56.809Z,19.25
2019-03-20T16:20:24.115Z,20.35
2019-03-20T16:22:51.399Z,18.75
2019-03-20T16:25:19.887Z,21.10
2019-03-20T16:27:47.183Z,24.18
2019-03-20T16:30:15.983Z,18.40
2019-03-20T16:32:43.258Z,16.23
2019-03-20T16:35:10.706Z,20.08
2019-03-20T16:37:38.051Z,20.48
2019-03-20T16:40:06.874Z,19.48
2019-03-20T16:42:34.162Z,22.62
2019-03-20T16:45:01.446Z,17.02
2019-03-20T16:47:28.712Z,19.82
2019-03-20T16:49:56.058Z,18.42
2019-03-20T16:52:23.326Z,23.62
2019-03-20T16:54:50.621Z,17.10
2019-03-20T16:57:18.019Z,18.20
2019-03-20T16:59:45.299Z,20.52
2019-03-20T17:02:12.625Z,17.52
2019-03-20T17:04:39.900Z,22.27
2019-03-20T17:07:07.174Z,21.07
2019-03-20T17:09:34.456Z,27.35
2019-03-20T17:12:01.755Z,22.15
2019-03-20T17:14:29.018Z,24.55
2019-03-20T17:16:56.319Z,17.95
2019-03-20T17:19:23.636Z,17.32
2019-03-20T17:21:50.966Z,15.10
2019-03-20T17:24:18.394Z,20.62
2019-03-20T17:26:45.653Z,13.08
2019-03-20T17:29:13.744Z,21.90
2019-03-20T17:31:41.203Z,17.73
2019-03-20T17:34:08.582Z,20.80
2019-03-20T17:36:35.839Z,18.05
2019-03-20T17:39:04.682Z,16.87
2019-03-20T17:41:36.590Z,16.52
2019-03-20T17:44:00.999Z,19.12
2019-03-20T17:46:28.294Z,21.05
2019-03-20T17:48:55.714Z,16.23
2019-03-20T17:51:22.980Z,14.60
2019-03-20T17:53:50.279Z,17.27
2019-03-20T17:56:17.701Z,14.70
2019-03-20T17:58:44.968Z,19.30
2019-03-20T18:01:12.270Z,12.58
2019-03-20T18:03:39.559Z,14.53
2019-03-20T18:06:06.847Z,14.73
2019-03-20T18:08:34.149Z,15.70
2019-03-20T18:11:01.462Z,25.23
2019-03-20T18:13:28.816Z,15.35
2019-03-20T18:15:56.092Z,14.78
2019-03-20T18:18:23.365Z,17.98
2019-03-20T18:20:50.676Z,15.48
2019-03-20T18:23:17.962Z,24.75
2019-03-20T18:25:45.234Z,19.55
2019-03-20T18:28:12.547Z,24.32
2019-03-20T18:30:40.786Z,20.05
2019-03-20T18:33:08.068Z,18.92
2019-03-20T18:35:35.359Z,18.80
2019-03-20T18:38:02.687Z,17.70
2019-03-20T18:40:29.982Z,17.35
2019-03-20T18:42:57.342Z,18.90
2019-03-20T18:45:25.319Z,16.45
2019-03-20T18:47:52.709Z,20.90
2019-03-20T18:50:20.539Z,15.08
2019-03-20T18:52:48.044Z,17.40
2019-03-20T18:55:15.837Z,18.07
2019-03-20T18:57:43.524Z,18.05
2019-03-20T19:00:12.552Z,18.85
2019-03-20T19:02:39.851Z,20.23
2019-03-20T19:05:08.726Z,19.77
2019-03-20T19:07:36.417Z,15.83
2019-03-20T19:10:04.517Z,17.87
2019-03-20T19:12:31.880Z,14.50
2019-03-20T19:14:59.215Z,15.30
2019-03-20T19:17:26.514Z,18.80
2019-03-20T19:19:53.872Z,25.60
2019-03-20T19:22:21.196Z,21.17
2019-03-20T19:24:48.472Z,18.55
2019-03-20T19:27:16.142Z,18.10
2019-03-20T19:29:43.442Z,17.00
2019-03-20T19:32:10.859Z,19.45
2019-03-20T19:34:38.143Z,19.67
2019-03-20T19:37:05.527Z,20.60
2019-03-20T19:39:33.050Z,16.57
2019-03-20T19:42:00.328Z,19.55
2019-03-20T19:44:27.670Z,22.45
2019-03-20T19:46:54.965Z,16.60
2019-03-20T19:49:22.273Z,13.18
2019-03-20T19:51:49.689Z,14.30
2019-03-20T19:54:16.963Z,14.25
2019-03-20T19:56:44.252Z,22.52
2019-03-20T19:59:11.551Z,16.50
2019-03-20T20:01:38.872Z,17.62
2019-03-20T20:04:06.203Z,16.75
2019-03-20T20:06:33.477Z,17.90
2019-03-20T20:09:01.105Z,19.32
2019-03-20T20:11:28.449Z,19.77
2019-03-20T20:13:55.742Z,17.25
2019-03-20T20:16:23.027Z,21.62
2019-03-20T20:18:50.295Z,21.87
2019-03-20T20:21:17.577Z,26.02
2019-03-20T20:23:44.858Z,23.45
2019-03-20T20:26:12.140Z,19.12
2019-03-20T20:28:39.482Z,17.45
2019-03-20T20:31:06.795Z,19.48
2019-03-20T20:33:34.151Z,15.75
2019-03-20T20:36:01.431Z,19.92
2019-03-20T20:38:28.803Z,16.97
2019-03-20T20:40:56.236Z,17.55
2019-03-20T20:43:23.514Z,14.45
2019-03-20T20:45:50.803Z,12.68
2019-03-20T20:48:18.167Z,11.28
2019-03-20T20:50:45.434Z,10.38
2019-03-20T20:53:12.713Z,12.43
2019-03-20T20:55:40.073Z,11.28
2019-03-20T20:58:07.339Z,10.93
2019-03-20T21:00:34.635Z,10.85
2019-03-20T21:03:01.938Z,11.88
2019-03-20T21:05:29.234Z,12.90
2019-03-20T21:07:56.515Z,11.75
2019-03-20T21:10:25.339Z,11.88
2019-03-20T21:12:56.633Z,15.45
2019-03-20T21:15:37.947Z,11.45
2019-03-20T21:18:12.683Z,9.03
2019-03-20T21:20:39.978Z,11.85
2019-03-20T21:23:27.574Z,11.65
2019-03-20T21:25:56.662Z,10.32
2019-03-20T21:28:25.467Z,12.25
2019-03-20T21:30:54.270Z,14.05
2019-03-20T21:33:23.117Z,11.40
2019-03-20T21:36:08.696Z,10.45
2019-03-20T21:38:36.174Z,11.55
2019-03-20T21:41:16.747Z,13.93
2019-03-20T21:44:01.955Z,13.08
2019-03-20T21:46:36.900Z,11.00
2019-03-20T21:49:04.202Z,16.45
2019-03-20T21:51:31.501Z,15.05
2019-03-20T21:54:12.352Z,13.50
2019-03-20T21:56:41.185Z,18.05
2019-03-20T21:59:10.011Z,15.80
2019-03-20T22:01:47.561Z,14.60
2019-03-20T22:04:14.841Z,11.68
2019-03-20T22:07:00.136Z,15.23
2019-03-20T22:09:29.051Z,13.13
2019-03-20T22:12:12.682Z,16.67
2019-03-20T22:14:40.464Z,16.23
2019-03-20T22:17:21.238Z,15.55
2019-03-20T22:19:56.101Z,15.53
2019-03-20T22:22:34.046Z,18.35
2019-03-20T22:25:05.920Z,16.23
2019-03-20T22:27:40.726Z,16.05
2019-03-20T22:30:08.286Z,12.37
2019-03-20T22:32:39.754Z,14.70
2019-03-20T22:35:24.810Z,14.68
2019-03-20T22:37:52.769Z,15.20
2019-03-20T22:40:37.773Z,12.85
2019-03-20T22:43:12.117Z,16.75
2019-03-20T22:45:57.170Z,14.07
2019-03-20T22:48:32.031Z,16.95
2019-03-20T22:51:03.760Z,14.40
2019-03-20T22:53:48.927Z,13.80
2019-03-20T22:56:35.826Z,14.10
2019-03-20T22:59:03.104Z,11.22
2019-03-20T23:01:34.703Z,12.53
2019-03-20T23:04:03.503Z,11.70
2019-03-20T23:06:30.804Z,12.13
2019-03-20T23:08:58.070Z,10.75
2019-03-20T23:11:25.360Z,13.53
2019-03-20T23:13:52.696Z,12.37
2019-03-20T23:16:20.535Z,10.63
2019-03-20T23:18:47.808Z,11.50
2019-03-20T23:21:15.097Z,12.80
2019-03-20T23:23:42.376Z,12.45
2019-03-20T23:26:09.663Z,13.58
2019-03-20T23:28:36.918Z,11.73
2019-03-20T23:31:04.209Z,10.60
2019-03-20T23:33:31.465Z,13.48
2019-03-20T23:35:58.731Z,16.45
2019-03-20T23:38:28.530Z,10.65
2019-03-20T23:40:55.014Z,13.45
2019-03-20T23:43:22.285Z,12.53
2019-03-20T23:45:49.595Z,16.50
2019-03-20T23:48:18.698Z,9.95
2019-03-20T23:50:46.638Z,11.38
2019-03-20T23:53:13.920Z,11.90
2019-03-20T23:55:41.189Z,11.78
2019-03-20T23:58:08.445Z,12.85
